createdAt,value
2022-10-30T00:00:03.727Z,982.47
2022-10-30T00:01:03.712Z,982.47
2022-10-30T00:02:04.103Z,982.44
2022-10-30T00:03:04.627Z,982.35
2022-10-30T00:04:03.778Z,982.38
2022-10-30T00:05:03.706Z,982.44
2022-10-30T00:06:03.859Z,982.41
2022-10-30T00:07:03.823Z,982.41
2022-10-30T00:08:03.812Z,982.44
2022-10-30T00:09:03.726Z,982.44
2022-10-30T00:10:04.019Z,982.38
2022-10-30T00:11:03.236Z,982.38
2022-10-30T00:12:03.219Z,982.41
2022-10-30T00:13:03.333Z,982.35
2022-10-30T00:14:03.288Z,982.30
2022-10-30T00:15:03.341Z,982.32
2022-10-30T00:16:03.335Z,982.35
2022-10-30T00:17:03.321Z,982.33
2022-10-30T00:18:03.372Z,982.38
2022-10-30T00:19:03.948Z,982.21
2022-10-30T00:20:03.487Z,982.30
2022-10-30T00:21:03.571Z,982.18
2022-10-30T00:23:03.451Z,982.21
2022-10-30T00:24:03.535Z,982.27
2022-10-30T00:25:03.662Z,982.39
2022-10-30T00:26:03.679Z,982.30
2022-10-30T00:27:03.651Z,982.27
2022-10-30T00:28:03.673Z,982.13
2022-10-30T00:29:03.801Z,982.13
2022-10-30T00:30:03.668Z,982.16
2022-10-30T00:31:03.710Z,982.07
2022-10-30T00:32:03.672Z,982.07
2022-10-30T00:33:03.746Z,981.99
2022-10-30T00:34:03.803Z,982.04
2022-10-30T00:35:03.778Z,982.16
2022-10-30T00:36:03.830Z,982.10
2022-10-30T00:37:03.885Z,982.07
2022-10-30T00:38:03.850Z,982.19
2022-10-30T00:39:02.866Z,982.01
2022-10-30T00:40:03.009Z,982.01
2022-10-30T00:41:03.058Z,982.13
2022-10-30T00:42:02.982Z,982.01
2022-10-30T00:43:03.033Z,981.93
2022-10-30T00:44:02.931Z,981.93
2022-10-30T00:45:02.884Z,981.73
2022-10-30T00:46:03.022Z,981.84
2022-10-30T00:47:02.931Z,981.99
2022-10-30T00:48:03.203Z,981.87
2022-10-30T00:49:02.907Z,982.01
2022-10-30T00:50:02.968Z,981.96
2022-10-30T00:51:02.941Z,981.90
2022-10-30T00:52:02.967Z,981.99
2022-10-30T00:53:02.929Z,981.90
2022-10-30T00:54:02.942Z,981.87
2022-10-30T00:55:03.038Z,981.78
2022-10-30T00:56:03.082Z,981.90
2022-10-30T00:57:03.089Z,981.76
2022-10-30T00:58:03.011Z,981.84
2022-10-30T00:59:03.011Z,981.93
2022-10-30T01:00:03.141Z,981.78
2022-10-30T01:01:04.060Z,981.84
2022-10-30T01:02:04.268Z,981.76
2022-10-30T01:03:03.838Z,981.84
2022-10-30T01:04:03.878Z,981.78
2022-10-30T01:05:04.078Z,981.73
2022-10-30T01:06:02.947Z,981.78
2022-10-30T01:07:03.041Z,981.81
2022-10-30T01:08:03.191Z,981.84
2022-10-30T01:09:03.819Z,981.78
2022-10-30T01:10:03.619Z,981.78
2022-10-30T01:11:03.622Z,981.78
2022-10-30T01:12:03.644Z,981.90
2022-10-30T01:13:03.684Z,981.84
2022-10-30T01:14:03.739Z,981.90
2022-10-30T01:15:03.775Z,981.61
2022-10-30T01:16:03.810Z,981.73
2022-10-30T01:17:03.841Z,981.84
2022-10-30T01:18:02.947Z,981.93
2022-10-30T01:19:02.896Z,981.78
2022-10-30T01:21:03.098Z,981.84
2022-10-30T01:22:03.054Z,981.73
2022-10-30T01:23:03.032Z,981.81
2022-10-30T01:24:02.971Z,981.70
2022-10-30T01:25:03.007Z,981.73
2022-10-30T01:26:03.048Z,981.70
2022-10-30T01:27:03.015Z,981.70
2022-10-30T01:28:02.961Z,981.73
2022-10-30T01:29:02.926Z,981.70
2022-10-30T01:30:02.913Z,981.61
2022-10-30T01:31:02.983Z,981.73
2022-10-30T01:32:02.948Z,981.75
2022-10-30T01:33:02.932Z,981.78
2022-10-30T01:34:02.937Z,981.84
2022-10-30T01:35:03.898Z,981.84
2022-10-30T01:36:02.972Z,981.72
2022-10-30T01:37:03.932Z,981.61
2022-10-30T01:38:02.904Z,981.64
2022-10-30T01:39:02.917Z,981.67
2022-10-30T01:40:02.905Z,981.58
2022-10-30T01:41:02.912Z,981.58
2022-10-30T01:42:03.048Z,981.53
2022-10-30T01:43:03.030Z,981.58
2022-10-30T01:44:03.015Z,981.56
2022-10-30T01:45:03.114Z,981.42
2022-10-30T01:46:02.965Z,981.53
2022-10-30T01:47:02.959Z,981.47
2022-10-30T01:48:02.886Z,981.42
2022-10-30T01:49:02.904Z,981.50
2022-10-30T01:50:02.997Z,981.50
2022-10-30T01:51:03.104Z,981.61
2022-10-30T01:52:03.009Z,981.53
2022-10-30T01:53:03.035Z,981.66
2022-10-30T01:54:02.970Z,981.47
2022-10-30T01:55:03.044Z,981.30
2022-10-30T01:56:03.138Z,981.45
2022-10-30T01:57:03.095Z,981.58
2022-10-30T01:58:03.064Z,981.39
2022-10-30T01:59:03.047Z,981.50
2022-10-30T02:00:03.071Z,981.47
2022-10-30T02:01:03.210Z,981.50
2022-10-30T02:02:03.231Z,981.61
2022-10-30T02:03:03.072Z,981.61
2022-10-30T02:05:03.027Z,981.58
2022-10-30T02:06:03.815Z,981.58
2022-10-30T02:07:03.863Z,981.58
2022-10-30T02:08:03.938Z,981.53
2022-10-30T02:09:03.935Z,981.42
2022-10-30T02:10:03.904Z,981.45
2022-10-30T02:11:02.907Z,981.51
2022-10-30T02:12:03.087Z,981.51
2022-10-30T02:13:03.070Z,981.58
2022-10-30T02:14:03.122Z,981.51
2022-10-30T02:15:03.050Z,981.45
2022-10-30T02:16:03.193Z,981.39
2022-10-30T02:17:03.301Z,981.36
2022-10-30T02:18:03.284Z,981.42
2022-10-30T02:19:03.293Z,981.39
2022-10-30T02:20:03.692Z,981.30
2022-10-30T02:21:03.809Z,981.42
2022-10-30T02:22:04.052Z,981.33
2022-10-30T02:23:04.663Z,981.42
2022-10-30T02:24:03.897Z,981.39
2022-10-30T02:25:03.827Z,981.30
2022-10-30T02:26:02.877Z,981.30
2022-10-30T02:27:03.027Z,981.33
2022-10-30T02:28:03.004Z,981.44
2022-10-30T02:29:02.934Z,981.33
2022-10-30T02:30:02.928Z,981.41
2022-10-30T02:31:03.086Z,981.33
2022-10-30T02:32:03.181Z,981.30
2022-10-30T02:33:03.459Z,981.39
2022-10-30T02:34:03.187Z,981.39
2022-10-30T02:35:03.173Z,981.27
2022-10-30T02:36:03.190Z,981.30
2022-10-30T02:37:03.226Z,981.39
2022-10-30T02:38:03.151Z,981.36
2022-10-30T02:39:03.189Z,981.39
2022-10-30T02:40:03.282Z,981.42
2022-10-30T02:41:03.359Z,981.33
2022-10-30T02:42:03.327Z,981.36
2022-10-30T02:43:03.281Z,981.30
2022-10-30T02:44:03.377Z,981.22
2022-10-30T02:45:03.479Z,981.30
2022-10-30T02:46:03.442Z,981.19
2022-10-30T02:47:03.487Z,981.39
2022-10-30T02:48:04.315Z,981.25
2022-10-30T02:49:03.697Z,981.22
2022-10-30T02:50:03.583Z,981.19
2022-10-30T02:51:03.603Z,981.25
2022-10-30T02:52:03.546Z,981.13
2022-10-30T02:53:03.587Z,981.24
2022-10-30T02:54:03.538Z,981.42
2022-10-30T02:55:03.500Z,981.19
2022-10-30T02:56:03.556Z,981.30
2022-10-30T02:57:03.613Z,981.24
2022-10-30T02:58:03.785Z,981.19
2022-10-30T02:59:03.885Z,981.19
2022-10-30T03:00:03.845Z,981.19
2022-10-30T03:01:03.022Z,981.30
2022-10-30T03:02:03.248Z,981.27
2022-10-30T03:03:03.095Z,981.27
2022-10-30T03:04:03.082Z,981.21
2022-10-30T03:05:03.000Z,981.39
2022-10-30T03:06:02.996Z,981.33
2022-10-30T03:07:03.321Z,981.21
2022-10-30T03:08:03.409Z,981.39
2022-10-30T03:09:03.508Z,981.30
2022-10-30T03:10:03.415Z,981.21
2022-10-30T03:11:03.458Z,981.19
2022-10-30T03:12:03.428Z,981.30
2022-10-30T03:13:03.575Z,981.21
2022-10-30T03:14:03.583Z,981.13
2022-10-30T03:15:03.675Z,981.39
2022-10-30T03:16:03.646Z,981.16
2022-10-30T03:17:03.789Z,981.24
2022-10-30T03:18:03.894Z,981.30
2022-10-30T03:19:04.271Z,981.24
2022-10-30T03:20:02.909Z,981.04
2022-10-30T03:21:02.916Z,981.16
2022-10-30T03:22:02.983Z,981.16
2022-10-30T03:23:03.051Z,981.22
2022-10-30T03:24:02.941Z,981.24
2022-10-30T03:25:03.058Z,981.22
2022-10-30T03:26:02.962Z,981.22
2022-10-30T03:27:03.025Z,981.27
2022-10-30T03:28:03.069Z,981.16
2022-10-30T03:29:03.112Z,981.19
2022-10-30T03:30:03.194Z,981.16
2022-10-30T03:31:03.162Z,981.22
2022-10-30T03:32:03.142Z,981.19
2022-10-30T03:33:03.276Z,981.22
2022-10-30T03:34:03.194Z,981.25
2022-10-30T03:35:03.186Z,981.19
2022-10-30T03:36:03.127Z,981.13
2022-10-30T03:37:03.165Z,981.10
2022-10-30T03:38:03.157Z,981.28
2022-10-30T03:39:03.234Z,981.13
2022-10-30T03:40:03.170Z,981.19
2022-10-30T03:41:03.132Z,981.27
2022-10-30T03:42:03.171Z,981.05
2022-10-30T03:43:03.174Z,981.16
2022-10-30T03:44:03.236Z,981.19
2022-10-30T03:45:03.243Z,981.25
2022-10-30T03:46:03.344Z,981.10
2022-10-30T03:47:03.352Z,981.16
2022-10-30T03:48:03.315Z,981.24
2022-10-30T03:49:03.377Z,981.13
2022-10-30T03:50:03.445Z,981.10
2022-10-30T03:51:03.534Z,981.16
2022-10-30T03:52:03.479Z,981.16
2022-10-30T03:53:03.537Z,981.07
2022-10-30T03:54:03.582Z,981.19
2022-10-30T03:55:03.746Z,981.10
2022-10-30T03:56:03.605Z,981.27
2022-10-30T03:57:03.659Z,980.96
2022-10-30T03:58:03.777Z,981.10
2022-10-30T03:59:03.830Z,981.04
2022-10-30T04:00:03.878Z,981.16
2022-10-30T04:01:03.991Z,981.04
2022-10-30T04:02:04.344Z,981.18
2022-10-30T04:03:03.854Z,981.07
2022-10-30T04:04:03.920Z,981.10
2022-10-30T04:05:03.805Z,981.10
2022-10-30T04:06:03.839Z,981.04
2022-10-30T04:07:03.856Z,981.15
2022-10-30T04:08:02.930Z,981.04
2022-10-30T04:09:02.885Z,981.09
2022-10-30T04:10:03.047Z,981.18
2022-10-30T04:11:03.119Z,981.18
2022-10-30T04:12:03.001Z,981.06
2022-10-30T04:13:03.021Z,981.09
2022-10-30T04:14:03.468Z,981.06
2022-10-30T04:15:03.422Z,981.00
2022-10-30T04:16:03.456Z,981.03
2022-10-30T04:17:03.485Z,981.06
2022-10-30T04:18:03.673Z,980.77
2022-10-30T04:19:03.595Z,980.97
2022-10-30T04:20:03.634Z,980.97
2022-10-30T04:21:03.657Z,980.91
2022-10-30T04:22:03.581Z,980.94
2022-10-30T04:23:03.554Z,980.99
2022-10-30T04:24:03.589Z,980.93
2022-10-30T04:25:03.593Z,980.84
2022-10-30T04:26:03.701Z,980.90
2022-10-30T04:27:03.734Z,981.05
2022-10-30T04:28:03.781Z,980.96
2022-10-30T04:29:03.833Z,980.99
2022-10-30T04:30:03.785Z,980.99
2022-10-30T04:31:03.868Z,980.96
2022-10-30T04:33:03.316Z,980.99
2022-10-30T04:34:02.977Z,981.02
2022-10-30T04:35:02.924Z,981.05
2022-10-30T04:36:04.000Z,980.85
2022-10-30T04:37:03.843Z,981.02
2022-10-30T04:38:03.040Z,981.02
2022-10-30T04:39:03.009Z,980.97
2022-10-30T04:40:02.984Z,981.14
2022-10-30T04:41:03.153Z,980.91
2022-10-30T04:42:03.095Z,981.02
2022-10-30T04:43:03.187Z,980.82
2022-10-30T04:44:03.206Z,980.94
2022-10-30T04:45:05.894Z,980.85
2022-10-30T04:46:03.219Z,980.94
2022-10-30T04:47:03.394Z,981.00
2022-10-30T04:48:03.336Z,980.79
2022-10-30T04:49:03.407Z,980.74
2022-10-30T04:50:03.355Z,980.88
2022-10-30T04:51:03.571Z,980.94
2022-10-30T04:52:03.530Z,980.99
2022-10-30T04:53:03.541Z,980.71
2022-10-30T04:54:03.512Z,980.93
2022-10-30T04:55:03.705Z,980.79
2022-10-30T04:56:03.657Z,980.82
2022-10-30T04:57:03.616Z,980.88
2022-10-30T04:58:03.633Z,980.85
2022-10-30T04:59:03.560Z,980.88
2022-10-30T05:00:03.654Z,980.91
2022-10-30T05:01:04.005Z,980.88
2022-10-30T05:02:03.551Z,980.97
2022-10-30T05:03:03.176Z,980.79
2022-10-30T05:04:03.169Z,980.85
2022-10-30T05:05:03.142Z,980.91
2022-10-30T05:06:03.711Z,980.91
2022-10-30T05:07:03.717Z,980.94
2022-10-30T05:08:03.724Z,981.05
2022-10-30T05:09:03.756Z,981.11
2022-10-30T05:10:03.758Z,980.94
2022-10-30T05:11:03.700Z,981.05
2022-10-30T05:12:03.714Z,981.05
2022-10-30T05:13:03.713Z,980.94
2022-10-30T05:14:03.664Z,981.08
2022-10-30T05:15:03.679Z,981.03
2022-10-30T05:16:03.579Z,981.05
2022-10-30T05:17:03.769Z,981.05
2022-10-30T05:18:03.769Z,981.08
2022-10-30T05:19:03.839Z,981.11
2022-10-30T05:20:03.758Z,980.94
2022-10-30T05:21:03.892Z,981.08
2022-10-30T05:22:03.861Z,980.94
2022-10-30T05:23:02.983Z,981.08
2022-10-30T05:24:03.899Z,981.03
2022-10-30T05:25:04.191Z,981.11
2022-10-30T05:26:03.030Z,981.14
2022-10-30T05:27:03.242Z,981.11
2022-10-30T05:28:03.150Z,981.17
2022-10-30T05:29:03.122Z,981.17
2022-10-30T05:30:03.113Z,981.00
2022-10-30T05:31:03.187Z,981.06
2022-10-30T05:32:03.243Z,981.06
2022-10-30T05:33:03.134Z,981.00
2022-10-30T05:34:07.806Z,980.94
2022-10-30T05:35:03.316Z,981.12
2022-10-30T05:36:03.240Z,981.12
2022-10-30T05:37:03.153Z,981.09
2022-10-30T05:38:03.173Z,981.12
2022-10-30T05:39:03.166Z,981.20
2022-10-30T05:40:03.278Z,981.09
2022-10-30T05:41:03.237Z,981.12
2022-10-30T05:42:03.274Z,981.03
2022-10-30T05:43:03.215Z,981.17
2022-10-30T05:44:03.286Z,981.09
2022-10-30T05:45:03.310Z,981.06
2022-10-30T05:46:03.272Z,981.12
2022-10-30T05:47:03.603Z,981.18
2022-10-30T05:48:04.008Z,981.06
2022-10-30T05:49:03.420Z,981.20
2022-10-30T05:50:03.410Z,981.12
2022-10-30T05:51:03.336Z,981.26
2022-10-30T05:52:03.290Z,981.06
2022-10-30T05:53:03.459Z,981.23
2022-10-30T05:54:03.367Z,981.35
2022-10-30T05:55:03.451Z,981.26
2022-10-30T05:56:03.417Z,981.20
2022-10-30T05:57:03.481Z,981.23
2022-10-30T05:58:03.545Z,981.23
2022-10-30T05:59:03.571Z,981.17
2022-10-30T06:00:03.543Z,981.09
2022-10-30T06:01:03.478Z,981.29
2022-10-30T06:02:03.591Z,981.14
2022-10-30T06:03:04.362Z,981.17
2022-10-30T06:04:03.399Z,981.17
2022-10-30T06:05:03.397Z,981.11
2022-10-30T06:06:03.363Z,981.23
2022-10-30T06:07:03.343Z,981.20
2022-10-30T06:08:03.380Z,981.17
2022-10-30T06:09:03.773Z,981.22
2022-10-30T06:10:03.924Z,981.25
2022-10-30T06:11:02.919Z,981.22
2022-10-30T06:12:03.693Z,981.16
2022-10-30T06:13:03.692Z,981.28
2022-10-30T06:14:03.558Z,981.25
2022-10-30T06:15:03.589Z,981.19
2022-10-30T06:16:03.694Z,981.19
2022-10-30T06:17:03.692Z,981.14
2022-10-30T06:18:03.885Z,981.19
2022-10-30T06:19:03.639Z,981.25
2022-10-30T06:20:03.602Z,981.28
2022-10-30T06:21:03.592Z,981.19
2022-10-30T06:22:03.495Z,981.14
2022-10-30T06:23:03.521Z,981.19
2022-10-30T06:24:03.548Z,981.31
2022-10-30T06:25:03.556Z,981.25
2022-10-30T06:26:03.631Z,981.16
2022-10-30T06:27:03.853Z,981.25
2022-10-30T06:28:03.727Z,981.34
2022-10-30T06:29:03.832Z,981.25
2022-10-30T06:30:03.902Z,981.22
2022-10-30T06:31:04.055Z,981.34
2022-10-30T06:32:07.186Z,981.31
2022-10-30T06:33:02.994Z,981.20
2022-10-30T06:34:02.955Z,981.20
2022-10-30T06:35:02.975Z,981.25
2022-10-30T06:36:03.176Z,981.31
2022-10-30T06:37:03.265Z,981.37
2022-10-30T06:38:03.366Z,981.31
2022-10-30T06:39:03.292Z,981.31
2022-10-30T06:40:03.200Z,981.25
2022-10-30T06:41:03.282Z,981.34
2022-10-30T06:42:03.157Z,981.28
2022-10-30T06:43:03.812Z,981.28
2022-10-30T06:44:03.304Z,981.28
2022-10-30T06:45:03.255Z,981.28
2022-10-30T06:46:03.440Z,981.37
2022-10-30T06:47:03.346Z,981.40
2022-10-30T06:48:03.652Z,981.40
2022-10-30T06:49:03.331Z,981.28
2022-10-30T06:50:03.241Z,981.28
2022-10-30T06:51:03.301Z,981.34
2022-10-30T06:52:03.260Z,981.43
2022-10-30T06:53:03.366Z,981.20
2022-10-30T06:54:03.264Z,981.17
2022-10-30T06:55:03.355Z,981.23
2022-10-30T06:56:03.261Z,981.26
2022-10-30T06:57:03.284Z,981.17
2022-10-30T06:58:03.750Z,981.23
2022-10-30T06:59:03.336Z,981.26
2022-10-30T07:00:03.473Z,981.23
2022-10-30T07:01:03.280Z,981.31
2022-10-30T07:02:07.037Z,981.11
2022-10-30T07:03:03.840Z,981.31
2022-10-30T07:04:03.322Z,981.34
2022-10-30T07:05:03.452Z,981.08
2022-10-30T07:06:03.401Z,981.14
2022-10-30T07:07:03.374Z,981.20
2022-10-30T07:08:03.519Z,981.20
2022-10-30T07:09:03.451Z,981.25
2022-10-30T07:10:03.536Z,981.20
2022-10-30T07:11:03.567Z,981.28
2022-10-30T07:12:07.397Z,981.37
2022-10-30T07:13:03.468Z,981.22
2022-10-30T07:14:03.505Z,981.19
2022-10-30T07:15:03.493Z,981.25
2022-10-30T07:16:03.429Z,981.36
2022-10-30T07:17:03.682Z,981.19
2022-10-30T07:18:04.330Z,981.22
2022-10-30T07:19:05.174Z,981.27
2022-10-30T07:20:03.657Z,981.30
2022-10-30T07:21:03.721Z,981.24
2022-10-30T07:22:03.849Z,981.15
2022-10-30T07:23:03.857Z,981.30
2022-10-30T07:24:02.941Z,981.24
2022-10-30T07:25:03.003Z,981.09
2022-10-30T07:26:04.743Z,981.29
2022-10-30T07:27:03.048Z,981.09
2022-10-30T07:28:03.556Z,981.14
2022-10-30T07:29:03.187Z,981.20
2022-10-30T07:30:03.182Z,981.14
2022-10-30T07:31:03.319Z,981.16
2022-10-30T07:32:04.185Z,981.13
2022-10-30T07:33:03.616Z,981.07
2022-10-30T07:34:03.466Z,981.01
2022-10-30T07:35:03.549Z,981.12
2022-10-30T07:36:03.608Z,981.06
2022-10-30T07:37:03.565Z,981.12
2022-10-30T07:38:03.572Z,981.15
2022-10-30T07:39:03.579Z,981.14
2022-10-30T07:40:11.590Z,981.14
2022-10-30T07:41:03.752Z,981.11
2022-10-30T07:42:03.720Z,981.17
2022-10-30T07:43:04.144Z,981.02
2022-10-30T07:44:03.891Z,981.19
2022-10-30T07:45:04.019Z,981.22
2022-10-30T07:46:02.944Z,981.25
2022-10-30T07:47:03.047Z,981.19
2022-10-30T07:48:03.949Z,981.25
2022-10-30T07:49:03.004Z,981.30
2022-10-30T07:50:03.038Z,981.13
2022-10-30T07:51:03.147Z,981.25
2022-10-30T07:52:03.215Z,981.33
2022-10-30T07:53:03.211Z,981.33
2022-10-30T07:54:03.241Z,981.36
2022-10-30T07:55:03.305Z,981.50
2022-10-30T07:56:03.400Z,981.27
2022-10-30T07:57:03.442Z,981.36
2022-10-30T07:58:03.391Z,981.39
2022-10-30T07:59:03.333Z,981.33
2022-10-30T08:00:05.191Z,981.47
2022-10-30T08:01:03.719Z,981.53
2022-10-30T08:02:03.756Z,981.56
2022-10-30T08:03:04.230Z,981.53
2022-10-30T08:04:03.593Z,981.50
2022-10-30T08:05:03.492Z,981.42
2022-10-30T08:06:03.604Z,981.53
2022-10-30T08:07:03.550Z,981.58
2022-10-30T08:08:03.643Z,981.61
2022-10-30T08:09:03.792Z,981.64
2022-10-30T08:10:03.005Z,981.64
2022-10-30T08:11:03.066Z,981.66
2022-10-30T08:12:02.970Z,981.58
2022-10-30T08:13:03.062Z,981.61
2022-10-30T08:14:03.053Z,981.66
2022-10-30T08:15:03.168Z,981.50
2022-10-30T08:16:03.125Z,981.56
2022-10-30T08:17:03.335Z,981.72
2022-10-30T08:18:03.657Z,981.66
2022-10-30T08:19:03.731Z,981.66
2022-10-30T08:20:03.686Z,981.53
2022-10-30T08:22:03.900Z,981.71
2022-10-30T08:23:03.805Z,981.74
2022-10-30T08:24:02.982Z,981.55
2022-10-30T08:25:03.882Z,981.68
2022-10-30T08:26:03.027Z,981.63
2022-10-30T08:27:02.893Z,981.65
2022-10-30T08:28:02.950Z,981.74
2022-10-30T08:29:02.991Z,981.74
2022-10-30T08:30:03.097Z,981.65
2022-10-30T08:31:03.059Z,981.62
2022-10-30T08:32:03.068Z,981.68
2022-10-30T08:33:03.236Z,981.74
2022-10-30T08:34:03.156Z,981.85
2022-10-30T08:35:03.144Z,981.68
2022-10-30T08:36:03.131Z,981.79
2022-10-30T08:37:03.135Z,981.68
2022-10-30T08:38:03.212Z,981.71
2022-10-30T08:39:03.385Z,981.68
2022-10-30T08:40:03.305Z,981.65
2022-10-30T08:41:03.226Z,981.62
2022-10-30T08:42:03.272Z,981.73
2022-10-30T08:43:03.128Z,981.82
2022-10-30T08:44:03.152Z,981.70
2022-10-30T08:45:03.186Z,981.67
2022-10-30T08:46:03.172Z,981.70
2022-10-30T08:47:03.199Z,981.78
2022-10-30T08:48:03.468Z,981.72
2022-10-30T08:49:03.186Z,981.67
2022-10-30T08:50:03.066Z,981.69
2022-10-30T08:51:03.272Z,981.53
2022-10-30T08:52:03.253Z,981.69
2022-10-30T08:53:04.024Z,981.49
2022-10-30T08:54:03.316Z,981.63
2022-10-30T08:55:03.270Z,981.62
2022-10-30T08:56:03.368Z,981.59
2022-10-30T08:57:03.484Z,981.65
2022-10-30T08:58:03.396Z,981.59
2022-10-30T08:59:03.414Z,981.64
2022-10-30T09:00:03.632Z,981.56
2022-10-30T09:01:03.913Z,981.73
2022-10-30T09:02:03.951Z,981.72
2022-10-30T09:03:04.959Z,981.63
2022-10-30T09:04:03.932Z,981.78
2022-10-30T09:05:03.867Z,981.69
2022-10-30T09:06:03.900Z,981.69
2022-10-30T09:07:04.578Z,981.71
2022-10-30T09:08:03.846Z,981.63
2022-10-30T09:09:03.053Z,981.83
2022-10-30T09:10:03.139Z,981.65
2022-10-30T09:11:03.243Z,981.79
2022-10-30T09:12:03.269Z,981.82
2022-10-30T09:13:03.274Z,981.76
2022-10-30T09:14:03.240Z,981.84
2022-10-30T09:15:03.318Z,981.73
2022-10-30T09:16:03.378Z,981.76
2022-10-30T09:17:03.887Z,981.90
2022-10-30T09:18:03.712Z,982.01
2022-10-30T09:19:03.014Z,981.75
2022-10-30T09:20:03.007Z,981.84
2022-10-30T09:21:05.594Z,981.81
2022-10-30T09:22:03.209Z,981.83
2022-10-30T09:23:04.117Z,981.89
2022-10-30T09:24:03.354Z,982.01
2022-10-30T09:25:03.460Z,981.95
2022-10-30T09:26:03.498Z,982.00
2022-10-30T09:27:03.558Z,981.83
2022-10-30T09:28:03.614Z,981.88
2022-10-30T09:29:03.575Z,982.00
2022-10-30T09:30:03.717Z,982.09
2022-10-30T09:31:03.686Z,982.00
2022-10-30T09:32:03.851Z,982.08
2022-10-30T09:33:04.887Z,982.05
2022-10-30T09:34:03.833Z,982.11
2022-10-30T09:35:03.590Z,982.08
2022-10-30T09:36:03.665Z,982.17
2022-10-30T09:37:03.723Z,982.14
2022-10-30T09:38:03.909Z,982.11
2022-10-30T09:39:03.778Z,982.16
2022-10-30T09:40:03.743Z,982.19
2022-10-30T09:41:03.849Z,982.13
2022-10-30T09:42:03.065Z,982.28
2022-10-30T09:43:03.028Z,982.28
2022-10-30T09:44:03.082Z,982.36
2022-10-30T09:45:29.580Z,982.27
2022-10-30T09:46:03.087Z,982.33
2022-10-30T09:47:03.162Z,982.24
2022-10-30T09:48:03.147Z,982.30
2022-10-30T09:49:03.337Z,982.30
2022-10-30T09:50:03.230Z,982.24
2022-10-30T09:51:03.600Z,982.47
2022-10-30T09:52:03.318Z,982.32
2022-10-30T09:53:03.157Z,982.29
2022-10-30T09:54:03.156Z,982.32
2022-10-30T09:55:03.075Z,982.29
2022-10-30T09:56:03.098Z,982.41
2022-10-30T09:57:03.059Z,982.41
2022-10-30T09:58:03.002Z,982.26
2022-10-30T09:59:03.613Z,982.29
2022-10-30T10:00:03.606Z,982.26
2022-10-30T10:01:07.619Z,982.37
2022-10-30T10:02:04.089Z,982.28
2022-10-30T10:03:03.835Z,982.34
2022-10-30T10:04:03.811Z,982.34
2022-10-30T10:05:03.032Z,982.51
2022-10-30T10:06:02.954Z,982.42
2022-10-30T10:07:03.099Z,982.36
2022-10-30T10:08:03.570Z,982.42
2022-10-30T10:09:03.125Z,982.39
2022-10-30T10:10:03.189Z,982.45
2022-10-30T10:11:03.241Z,982.33
2022-10-30T10:12:03.230Z,982.41
2022-10-30T10:13:04.403Z,982.47
2022-10-30T10:14:03.268Z,982.38
2022-10-30T10:15:03.251Z,982.35
2022-10-30T10:16:03.308Z,982.32
2022-10-30T10:17:03.346Z,982.35
2022-10-30T10:18:03.258Z,982.38
2022-10-30T10:19:03.259Z,982.43
2022-10-30T10:20:03.230Z,982.29
2022-10-30T10:21:03.276Z,982.46
2022-10-30T10:22:03.325Z,982.34
2022-10-30T10:23:03.448Z,982.28
2022-10-30T10:24:03.441Z,982.40
2022-10-30T10:25:03.440Z,982.40
2022-10-30T10:26:03.494Z,982.40
2022-10-30T10:27:03.476Z,982.37
2022-10-30T10:28:03.449Z,982.22
2022-10-30T10:29:03.412Z,982.39
2022-10-30T10:30:03.496Z,982.36
2022-10-30T10:31:03.536Z,982.45
2022-10-30T10:32:03.594Z,982.30
2022-10-30T10:33:03.561Z,982.42
2022-10-30T10:34:03.645Z,982.30
2022-10-30T10:35:03.544Z,982.33
2022-10-30T10:36:03.580Z,982.36
2022-10-30T10:37:03.557Z,982.27
2022-10-30T10:38:03.460Z,982.24
2022-10-30T10:39:03.520Z,982.44
2022-10-30T10:40:03.578Z,982.35
2022-10-30T10:41:03.654Z,982.38
2022-10-30T10:42:03.843Z,982.35
2022-10-30T10:43:03.799Z,982.35
2022-10-30T10:44:03.736Z,982.26
2022-10-30T10:45:03.825Z,982.29
2022-10-30T10:46:02.925Z,982.41
2022-10-30T10:47:07.591Z,982.38
2022-10-30T10:48:03.635Z,982.29
2022-10-30T10:49:03.088Z,982.26
2022-10-30T10:50:03.041Z,982.20
2022-10-30T10:51:02.996Z,982.34
2022-10-30T10:52:03.056Z,982.22
2022-10-30T10:53:03.332Z,982.22
2022-10-30T10:54:03.123Z,982.19
2022-10-30T10:55:03.152Z,982.25
2022-10-30T10:56:03.174Z,982.28
2022-10-30T10:57:03.095Z,982.25
2022-10-30T10:58:03.292Z,982.22
2022-10-30T10:59:03.451Z,982.22
2022-10-30T11:00:03.377Z,982.16
2022-10-30T11:01:03.523Z,981.98
2022-10-30T11:02:03.811Z,982.21
2022-10-30T11:03:04.513Z,982.18
2022-10-30T11:04:03.598Z,982.21
2022-10-30T11:05:03.589Z,982.15
2022-10-30T11:06:03.647Z,982.06
2022-10-30T11:07:03.689Z,982.15
2022-10-30T11:08:03.711Z,982.09
2022-10-30T11:09:03.757Z,982.09
2022-10-30T11:10:03.630Z,982.06
2022-10-30T11:11:03.769Z,982.15
2022-10-30T11:12:03.833Z,982.09
2022-10-30T11:13:03.790Z,982.12
2022-10-30T11:14:03.732Z,982.06
2022-10-30T11:15:03.739Z,982.12
2022-10-30T11:16:03.725Z,982.09
2022-10-30T11:17:03.705Z,982.08
2022-10-30T11:18:03.946Z,982.14
2022-10-30T11:19:04.010Z,982.11
2022-10-30T11:20:03.029Z,982.26
2022-10-30T11:21:02.968Z,982.11
2022-10-30T11:22:03.043Z,982.05
2022-10-30T11:23:03.074Z,982.02
2022-10-30T11:24:02.989Z,982.05
2022-10-30T11:25:03.026Z,982.08
2022-10-30T11:26:03.114Z,982.02
2022-10-30T11:27:03.206Z,982.08
2022-10-30T11:28:03.208Z,982.17
2022-10-30T11:29:03.276Z,982.08
2022-10-30T11:30:03.273Z,982.02
2022-10-30T11:31:03.326Z,981.93
2022-10-30T11:32:03.434Z,981.99
2022-10-30T11:33:03.403Z,982.02
2022-10-30T11:34:03.567Z,982.07
2022-10-30T11:35:03.522Z,982.02
2022-10-30T11:36:03.637Z,981.99
2022-10-30T11:37:03.781Z,981.98
2022-10-30T11:38:03.728Z,982.04
2022-10-30T11:39:03.883Z,981.98
2022-10-30T11:40:02.927Z,982.01
2022-10-30T11:41:03.050Z,982.07
2022-10-30T11:42:03.230Z,982.04
2022-10-30T11:43:03.562Z,981.98
2022-10-30T11:44:03.234Z,981.95
2022-10-30T11:45:03.408Z,981.95
2022-10-30T11:46:03.381Z,981.98
2022-10-30T11:47:03.371Z,981.89
2022-10-30T11:48:06.916Z,982.04
2022-10-30T11:49:03.348Z,981.92
2022-10-30T11:50:03.345Z,982.07
2022-10-30T11:51:03.556Z,982.04
2022-10-30T11:52:03.356Z,982.04
2022-10-30T11:53:03.399Z,982.04
2022-10-30T11:54:03.559Z,982.06
2022-10-30T11:55:03.483Z,981.95
2022-10-30T11:56:03.524Z,982.00
2022-10-30T11:57:03.480Z,982.00
2022-10-30T11:58:03.800Z,982.00
2022-10-30T11:59:03.591Z,981.97
2022-10-30T12:00:05.950Z,982.03
2022-10-30T12:01:03.549Z,981.94
2022-10-30T12:02:03.841Z,981.91
2022-10-30T12:03:04.020Z,981.97
2022-10-30T12:04:03.591Z,981.85
2022-10-30T12:05:03.639Z,981.97
2022-10-30T12:06:03.633Z,981.94
2022-10-30T12:07:03.739Z,981.94
2022-10-30T12:08:03.815Z,981.94
2022-10-30T12:09:03.855Z,981.97
2022-10-30T12:10:02.996Z,981.97
2022-10-30T12:11:03.019Z,981.91
2022-10-30T12:12:07.056Z,981.94
2022-10-30T12:13:03.225Z,982.08
2022-10-30T12:14:03.108Z,981.91
2022-10-30T12:15:03.059Z,981.91
2022-10-30T12:16:03.064Z,981.96
2022-10-30T12:17:03.038Z,981.96
2022-10-30T12:18:03.056Z,981.96
2022-10-30T12:19:03.157Z,981.90
2022-10-30T12:20:03.151Z,981.87
2022-10-30T12:21:03.093Z,981.93
2022-10-30T12:22:09.764Z,981.87
2022-10-30T12:23:03.132Z,981.79
2022-10-30T12:24:03.088Z,981.78
2022-10-30T12:25:03.132Z,981.87
2022-10-30T12:26:03.183Z,981.99
2022-10-30T12:27:03.230Z,981.84
2022-10-30T12:28:03.091Z,981.90
2022-10-30T12:29:03.160Z,981.99
2022-10-30T12:30:10.106Z,981.96
2022-10-30T12:31:03.214Z,982.08
2022-10-30T12:32:03.130Z,982.08
2022-10-30T12:33:03.307Z,982.10